createdAt,value
2018-09-08T00:00:14.878Z,8.90
2018-09-08T00:02:43.458Z,10.97
2018-09-08T00:05:12.059Z,11.60
2018-09-08T00:07:40.639Z,15.43
2018-09-08T00:10:10.803Z,16.07
2018-09-08T00:12:39.376Z,8.67
2018-09-08T00:15:13.399Z,8.50
2018-09-08T00:17:47.236Z,9.90
2018-09-08T00:20:21.013Z,8.73
2018-09-08T00:22:54.748Z,14.43
2018-09-08T00:25:28.733Z,11.30
2018-09-08T00:28:02.584Z,9.07
2018-09-08T00:30:31.227Z,7.60
2018-09-08T00:32:59.896Z,8.27
2018-09-08T00:35:28.594Z,9.97
2018-09-08T00:37:57.194Z,6.43
2018-09-08T00:40:25.796Z,11.80
2018-09-08T00:42:54.369Z,9.93
2018-09-08T00:45:22.965Z,8.63
2018-09-08T00:47:51.575Z,8.23
2018-09-08T00:50:20.191Z,11.27
2018-09-08T00:52:48.811Z,9.67
2018-09-08T00:55:17.685Z,13.20
2018-09-08T00:57:46.339Z,8.30
2018-09-08T01:00:14.957Z,8.03
2018-09-08T01:02:43.553Z,13.03
2018-09-08T01:05:12.194Z,7.70
2018-09-08T01:07:40.862Z,9.47
2018-09-08T01:10:09.525Z,10.60
2018-09-08T01:12:38.122Z,8.20
2018-09-08T01:15:07.378Z,12.30
2018-09-08T01:17:35.971Z,7.93
2018-09-08T01:20:04.681Z,9.63
2018-09-08T01:22:33.291Z,10.37
2018-09-08T01:25:01.986Z,9.37
2018-09-08T01:27:30.585Z,9.70
2018-09-08T01:29:59.337Z,7.30
2018-09-08T01:32:27.925Z,9.80
2018-09-08T01:34:56.516Z,7.63
2018-09-08T01:37:25.246Z,11.40
2018-09-08T01:39:53.884Z,7.87
2018-09-08T01:42:22.458Z,9.30
2018-09-08T01:44:51.034Z,6.50
2018-09-08T01:47:19.612Z,11.70
2018-09-08T01:49:48.225Z,10.27
2018-09-08T01:52:16.808Z,10.67
2018-09-08T01:54:45.432Z,7.83
2018-09-08T01:57:14.000Z,15.10
2018-09-08T01:59:42.657Z,9.83
2018-09-08T02:02:11.306Z,9.20
2018-09-08T02:04:39.998Z,8.60
2018-09-08T02:07:08.589Z,9.60
2018-09-08T02:09:37.269Z,10.27
2018-09-08T02:12:05.945Z,7.80
2018-09-08T02:14:34.570Z,7.87
2018-09-08T02:17:03.147Z,8.80
2018-09-08T02:19:31.804Z,8.70
2018-09-08T02:22:00.405Z,12.23
2018-09-08T02:24:29.444Z,15.93
2018-09-08T02:26:58.073Z,12.30
2018-09-08T02:29:26.790Z,12.27
2018-09-08T02:31:55.393Z,9.60
2018-09-08T02:34:23.935Z,22.10
2018-09-08T02:36:52.608Z,13.00
2018-09-08T02:39:21.230Z,12.47
2018-09-08T02:41:49.823Z,12.33
2018-09-08T02:44:18.382Z,11.60
2018-09-08T02:46:46.976Z,14.20
2018-09-08T02:49:15.533Z,14.30
2018-09-08T02:51:42.933Z,18.27
2018-09-08T02:54:10.319Z,16.67
2018-09-08T02:56:43.788Z,8.87
2018-09-08T02:59:11.161Z,12.40
2018-09-08T03:01:38.612Z,15.30
2018-09-08T03:04:06.004Z,11.80
2018-09-08T03:06:33.416Z,11.40
2018-09-08T03:09:00.818Z,13.40
2018-09-08T03:11:28.237Z,12.90
2018-09-08T03:13:55.633Z,13.83
2018-09-08T03:16:23.068Z,9.97
2018-09-08T03:18:50.469Z,15.50
2018-09-08T03:21:17.901Z,12.50
2018-09-08T03:23:45.324Z,12.30
2018-09-08T03:26:31.926Z,14.63
2018-09-08T03:28:59.341Z,12.43
2018-09-08T03:31:26.760Z,20.30
2018-09-08T03:33:54.145Z,13.30
2018-09-08T03:36:21.574Z,14.00
2018-09-08T03:38:48.967Z,12.47
2018-09-08T03:41:16.418Z,14.90
2018-09-08T03:43:43.800Z,14.63
2018-09-08T03:46:11.221Z,13.23
2018-09-08T03:48:38.642Z,11.87
2018-09-08T03:51:06.068Z,14.50
2018-09-08T03:53:33.470Z,9.93
2018-09-08T04:16:36.125Z,12.13
2018-09-08T04:19:04.815Z,15.20
2018-09-08T04:21:33.424Z,14.03
2018-09-08T04:24:02.039Z,12.30
2018-09-08T04:26:30.680Z,16.03
2018-09-08T04:28:59.240Z,16.43
2018-09-08T04:31:27.910Z,12.20
2018-09-08T04:33:56.539Z,10.23
2018-09-08T04:36:25.129Z,12.27
2018-09-08T04:38:53.861Z,12.23
2018-09-08T04:41:22.590Z,15.30
2018-09-08T04:43:51.529Z,13.53
2018-09-08T04:46:20.155Z,10.50
2018-09-08T04:48:48.704Z,9.27
2018-09-08T04:51:17.545Z,17.13
2018-09-08T04:53:46.141Z,11.93
2018-09-08T04:56:14.887Z,13.50
2018-09-08T04:58:43.601Z,17.10
2018-09-08T05:01:12.209Z,15.50
2018-09-08T05:03:40.797Z,13.10
2018-09-08T05:06:09.433Z,15.43
2018-09-08T05:08:38.099Z,11.83
2018-09-08T05:11:06.745Z,15.47
2018-09-08T05:13:35.313Z,15.40
2018-09-08T05:16:04.001Z,14.60
2018-09-08T05:18:32.600Z,13.00
2018-09-08T05:21:01.298Z,17.47
2018-09-08T05:23:29.887Z,12.10
2018-09-08T05:25:58.534Z,17.73
2018-09-08T05:28:27.163Z,13.50
2018-09-08T05:30:55.772Z,9.73
2018-09-08T05:33:24.383Z,11.07
2018-09-08T05:35:52.994Z,12.13
2018-09-08T05:38:21.633Z,14.00
2018-09-08T05:40:50.217Z,14.90
2018-09-08T05:43:18.847Z,15.60
2018-09-08T05:45:47.442Z,15.30
2018-09-08T05:48:16.370Z,10.63
2018-09-08T05:50:45.003Z,13.43
2018-09-08T05:53:13.606Z,8.57
2018-09-08T05:55:42.221Z,11.87
2018-09-08T05:58:10.845Z,10.97
2018-09-08T06:00:39.483Z,11.80
2018-09-08T06:03:08.121Z,12.73
2018-09-08T06:05:36.729Z,12.83
2018-09-08T06:08:05.389Z,11.10
2018-09-08T06:10:33.985Z,14.87
2018-09-08T06:13:02.633Z,20.77
2018-09-08T06:15:31.195Z,17.03
2018-09-08T06:17:59.797Z,15.10
2018-09-08T06:20:28.413Z,15.60
2018-09-08T06:22:57.044Z,15.30
2018-09-08T06:25:25.634Z,14.53
2018-09-08T06:27:54.254Z,14.03
2018-09-08T06:30:22.831Z,12.70
2018-09-08T06:32:51.434Z,12.70
2018-09-08T06:35:20.130Z,20.60
2018-09-08T06:37:48.756Z,25.30
2018-09-08T06:40:17.350Z,41.87
2018-09-08T06:42:45.953Z,23.97
2018-09-08T06:45:14.575Z,28.90
2018-09-08T06:47:43.193Z,31.87
2018-09-08T06:50:11.802Z,19.70
2018-09-08T06:52:40.421Z,16.97
2018-09-08T06:55:09.003Z,27.83
2018-09-08T06:57:37.614Z,18.57
2018-09-08T07:00:06.947Z,20.23
2018-09-08T07:02:35.565Z,18.17
2018-09-08T07:05:04.245Z,22.50
2018-09-08T07:07:32.888Z,21.83
2018-09-08T07:10:01.471Z,21.60
2018-09-08T07:12:30.088Z,24.57
2018-09-08T07:14:58.743Z,28.87
2018-09-08T07:17:27.348Z,26.47
2018-09-08T07:19:55.961Z,25.50
2018-09-08T07:22:24.549Z,18.60
2018-09-08T07:24:53.191Z,22.17
2018-09-08T07:27:21.811Z,23.17
2018-09-08T07:29:50.369Z,20.40
2018-09-08T07:32:19.045Z,23.17
2018-09-08T07:34:47.678Z,23.43
2018-09-08T07:37:16.382Z,26.40
2018-09-08T07:39:46.062Z,19.20
2018-09-08T07:42:14.740Z,19.77
2018-09-08T07:44:43.361Z,18.47
2018-09-08T07:47:11.991Z,18.43
2018-09-08T07:49:40.570Z,16.70
2018-09-08T07:52:09.142Z,17.03
2018-09-08T07:54:37.762Z,17.47
2018-09-08T07:57:06.325Z,16.17
2018-09-08T07:59:35.004Z,32.50
2018-09-08T08:02:03.598Z,20.30
2018-09-08T08:04:32.225Z,30.13
2018-09-08T08:07:00.796Z,18.30
2018-09-08T08:09:29.437Z,16.57
2018-09-08T08:11:58.006Z,18.10
2018-09-08T08:14:26.637Z,18.50
2018-09-08T08:16:55.238Z,16.23
2018-09-08T08:19:23.880Z,14.40
2018-09-08T08:21:52.455Z,13.37
2018-09-08T08:24:21.066Z,11.53
2018-09-08T08:26:49.698Z,12.97
2018-09-08T08:29:18.361Z,11.90
2018-09-08T08:31:46.935Z,13.73
2018-09-08T08:34:15.556Z,9.97
2018-09-08T08:36:44.200Z,16.50
2018-09-08T08:39:12.849Z,42.57
2018-09-08T08:41:41.441Z,22.27
2018-09-08T08:44:10.096Z,21.17
2018-09-08T08:46:38.743Z,17.10
2018-09-08T08:49:07.425Z,15.17
2018-09-08T08:51:47.281Z,17.20
2018-09-08T08:54:18.658Z,16.53
2018-09-08T08:56:47.406Z,19.00
2018-09-08T08:59:16.028Z,12.60
2018-09-08T09:01:44.628Z,17.17
2018-09-08T09:04:13.264Z,14.63
2018-09-08T09:06:41.880Z,9.17
2018-09-08T09:09:14.850Z,12.60
2018-09-08T09:11:44.344Z,11.00
2018-09-08T09:14:13.471Z,10.23
2018-09-08T09:16:42.265Z,9.70
2018-09-08T09:19:34.237Z,10.73
2018-09-08T09:22:15.244Z,8.13
2018-09-08T09:24:52.446Z,9.10
2018-09-08T09:27:21.174Z,8.53
2018-09-08T09:29:49.766Z,7.23
2018-09-08T09:32:18.784Z,10.70
2018-09-08T09:34:47.462Z,7.77
2018-09-08T09:37:16.095Z,8.20
2018-09-08T09:39:44.713Z,7.10
2018-09-08T09:42:13.326Z,8.17
2018-09-08T09:44:41.941Z,3.57
2018-09-08T09:47:10.561Z,6.50
2018-09-08T09:49:39.179Z,3.20
2018-09-08T09:52:07.760Z,3.37
2018-09-08T09:54:36.373Z,5.30
2018-09-08T09:57:04.974Z,3.70
2018-09-08T09:59:33.568Z,3.47
2018-09-08T10:02:03.118Z,5.43
2018-09-08T10:04:31.726Z,3.80
2018-09-08T10:07:00.365Z,10.93
2018-09-08T10:09:29.617Z,4.27
2018-09-08T10:11:58.221Z,4.83
2018-09-08T10:14:27.338Z,4.03
2018-09-08T10:16:56.835Z,4.17
2018-09-08T10:19:25.448Z,5.27
2018-09-08T10:21:54.016Z,3.13
2018-09-08T10:24:22.639Z,3.30
2018-09-08T10:26:51.285Z,6.20
2018-09-08T10:29:20.666Z,3.20
2018-09-08T10:31:49.662Z,2.90
2018-09-08T10:34:17.947Z,5.03
2018-09-08T10:36:46.552Z,3.07
2018-09-08T10:39:15.171Z,3.57
2018-09-08T10:41:43.736Z,2.47
2018-09-08T10:44:15.393Z,36.03
2018-09-08T10:46:43.992Z,3.33
2018-09-08T10:49:12.658Z,5.17
2018-09-08T10:51:49.700Z,4.40
2018-09-08T10:54:18.377Z,2.90
2018-09-08T10:56:46.940Z,3.57
2018-09-08T10:59:15.596Z,5.27
2018-09-08T11:01:44.310Z,3.50
2018-09-08T11:04:12.849Z,7.10
2018-09-08T11:06:41.461Z,3.60
2018-09-08T11:09:10.114Z,3.40
2018-09-08T11:11:38.706Z,5.40
2018-09-08T11:14:07.386Z,6.80
2018-09-08T11:16:36.084Z,3.73
2018-09-08T11:19:04.722Z,5.87
2018-09-08T11:21:33.341Z,4.33
2018-09-08T11:24:01.934Z,3.77
2018-09-08T11:26:30.660Z,3.77
2018-09-08T11:28:59.236Z,3.43
2018-09-08T11:31:27.861Z,3.50
2018-09-08T11:33:56.513Z,3.40
2018-09-08T11:36:25.114Z,3.03
2018-09-08T11:38:53.649Z,3.40
2018-09-08T11:41:22.235Z,3.83
2018-09-08T11:43:50.884Z,5.77
2018-09-08T11:46:19.445Z,3.73
2018-09-08T11:48:48.741Z,5.53
2018-09-08T11:51:17.384Z,3.17
2018-09-08T11:53:45.958Z,2.70
2018-09-08T11:56:14.549Z,4.67
2018-09-08T11:58:43.138Z,4.47
2018-09-08T12:01:11.756Z,4.20
2018-09-08T12:03:40.317Z,5.63
2018-09-08T12:06:08.970Z,5.03
2018-09-08T12:08:37.553Z,3.67
2018-09-08T12:11:06.157Z,3.43
2018-09-08T12:13:34.685Z,3.27
2018-09-08T12:16:03.294Z,3.20
2018-09-08T12:18:31.905Z,3.77
2018-09-08T12:21:00.485Z,3.90
2018-09-08T12:23:29.038Z,4.73
2018-09-08T12:25:57.669Z,4.07
2018-09-08T12:28:27.183Z,3.83
2018-09-08T12:30:55.809Z,3.30
2018-09-08T12:33:24.526Z,3.03
2018-09-08T12:35:54.094Z,3.97
2018-09-08T12:38:22.821Z,3.40
2018-09-08T12:40:51.427Z,6.30
2018-09-08T12:43:19.997Z,3.80
2018-09-08T12:45:48.624Z,3.20
2018-09-08T12:48:17.220Z,6.20
2018-09-08T12:50:45.794Z,3.47
2018-09-08T12:53:14.468Z,3.03
2018-09-08T12:55:43.090Z,3.60
2018-09-08T12:58:11.641Z,3.23
2018-09-08T13:00:40.220Z,4.60
2018-09-08T13:03:08.755Z,6.00
2018-09-08T13:05:37.302Z,4.33
2018-09-08T13:08:06.288Z,2.83
2018-09-08T13:10:34.874Z,4.23
2018-09-08T13:13:03.455Z,5.00
2018-09-08T13:15:32.033Z,3.20
2018-09-08T13:18:00.590Z,4.97
2018-09-08T13:20:29.166Z,6.00
2018-09-08T13:22:57.741Z,3.13
2018-09-08T13:25:26.330Z,4.50
2018-09-08T13:27:54.898Z,3.40
2018-09-08T13:30:23.470Z,3.33
2018-09-08T13:32:52.006Z,4.67
2018-09-08T13:35:20.605Z,3.53
2018-09-08T13:37:49.161Z,3.27
2018-09-08T13:40:17.762Z,3.07
2018-09-08T13:42:46.361Z,3.80
2018-09-08T13:45:14.993Z,7.00
2018-09-08T13:47:43.594Z,4.30
2018-09-08T13:50:12.179Z,3.03
2018-09-08T13:52:40.792Z,3.37
2018-09-08T13:55:09.341Z,3.10
2018-09-08T13:57:38.113Z,4.07
2018-09-08T14:00:07.741Z,3.07
2018-09-08T14:02:36.429Z,3.47
2018-09-08T14:05:05.087Z,5.20
2018-09-08T14:07:33.720Z,4.63
2018-09-08T14:10:02.362Z,3.20
2018-09-08T14:12:30.934Z,3.43
2018-09-08T14:14:59.525Z,2.80
2018-09-08T14:17:28.117Z,3.43
2018-09-08T14:19:56.687Z,2.93
2018-09-08T14:22:25.287Z,3.67
2018-09-08T14:24:53.845Z,4.23
2018-09-08T14:27:22.489Z,3.77
2018-09-08T14:29:51.066Z,5.67
2018-09-08T14:32:19.674Z,2.90
2018-09-08T14:34:48.242Z,7.40
2018-09-08T14:37:16.854Z,3.47
2018-09-08T14:39:45.429Z,4.70
2018-09-08T14:42:14.011Z,3.13
2018-09-08T14:44:42.569Z,3.60
2018-09-08T14:47:11.139Z,2.60
2018-09-08T14:49:39.671Z,3.40
2018-09-08T14:52:08.245Z,4.53
2018-09-08T14:54:36.773Z,5.77
2018-09-08T14:57:05.517Z,4.00
2018-09-08T14:59:34.078Z,2.80
2018-09-08T15:02:02.699Z,5.23
2018-09-08T15:04:31.397Z,6.67
2018-09-08T15:06:59.980Z,7.53
2018-09-08T15:09:28.552Z,2.83
2018-09-08T15:11:57.133Z,3.17
2018-09-08T15:14:25.720Z,10.07
2018-09-08T15:16:54.324Z,2.83
2018-09-08T15:19:23.022Z,2.90
2018-09-08T15:21:51.675Z,3.43
2018-09-08T15:24:20.334Z,2.40
2018-09-08T15:26:49.006Z,2.83
2018-09-08T15:29:17.613Z,4.40
2018-09-08T15:31:46.201Z,3.23
2018-09-08T15:34:14.790Z,4.27
2018-09-08T15:36:43.403Z,4.17
2018-09-08T15:39:11.949Z,4.30
2018-09-08T15:41:40.628Z,5.70
2018-09-08T15:44:09.204Z,3.10
2018-09-08T15:46:37.774Z,2.87
2018-09-08T15:49:06.370Z,3.83
2018-09-08T15:51:34.987Z,4.30
2018-09-08T15:54:03.632Z,3.30
2018-09-08T15:56:32.205Z,5.17
2018-09-08T15:59:00.780Z,2.67
2018-09-08T16:01:29.367Z,4.90
2018-09-08T16:03:57.942Z,3.30
2018-09-08T16:06:26.655Z,5.93
2018-09-08T16:08:55.226Z,4.10
2018-09-08T16:11:23.899Z,3.53
2018-09-08T16:13:52.424Z,3.37
2018-09-08T16:16:20.981Z,5.00
2018-09-08T16:18:49.606Z,4.03
2018-09-08T16:21:18.217Z,4.73
2018-09-08T16:23:46.820Z,7.80
2018-09-08T16:26:15.410Z,4.03
2018-09-08T16:28:44.096Z,3.93
2018-09-08T16:31:12.625Z,3.30
2018-09-08T16:33:41.223Z,3.40
2018-09-08T16:36:09.769Z,4.00
2018-09-08T16:38:38.385Z,3.83
2018-09-08T16:41:06.968Z,4.97
2018-09-08T16:43:35.541Z,3.00
2018-09-08T16:46:04.561Z,2.97
2018-09-08T16:48:33.184Z,3.27
2018-09-08T16:51:01.744Z,3.27
2018-09-08T16:53:30.397Z,3.63
2018-09-08T16:55:59.153Z,2.80
2018-09-08T16:58:27.903Z,3.13
2018-09-08T17:00:56.481Z,4.40
2018-09-08T17:03:25.077Z,4.20
2018-09-08T17:05:53.690Z,3.63
2018-09-08T17:08:22.327Z,4.93
2018-09-08T17:10:51.010Z,2.90
2018-09-08T17:13:19.565Z,3.33
2018-09-08T17:15:48.115Z,2.60
2018-09-08T17:18:16.682Z,3.53
2018-09-08T17:20:45.385Z,3.50
2018-09-08T17:23:13.984Z,2.90
2018-09-08T17:25:42.588Z,3.73
2018-09-08T17:28:11.349Z,5.97
2018-09-08T17:30:39.905Z,3.30
2018-09-08T17:33:08.501Z,3.03
2018-09-08T17:35:37.081Z,3.03
2018-09-08T17:38:06.590Z,3.60
2018-09-08T17:40:35.169Z,3.40
2018-09-08T17:43:03.749Z,2.90
2018-09-08T17:45:32.354Z,3.80
2018-09-08T17:48:00.982Z,3.13
2018-09-08T17:50:29.586Z,3.47
2018-09-08T17:52:58.161Z,3.97
2018-09-08T17:55:26.752Z,3.83
2018-09-08T17:57:55.470Z,3.70
2018-09-08T18:00:24.082Z,4.40
2018-09-08T18:02:52.718Z,5.33
2018-09-08T18:05:21.366Z,5.27
2018-09-08T18:07:49.973Z,3.50
2018-09-08T18:10:18.559Z,3.43
2018-09-08T18:12:47.157Z,4.33
2018-09-08T18:15:15.735Z,5.77
2018-09-08T18:17:44.325Z,4.27
2018-09-08T18:20:12.910Z,3.93
2018-09-08T18:22:41.538Z,3.50
2018-09-08T18:25:10.122Z,3.07
2018-09-08T18:27:38.750Z,3.53
2018-09-08T18:30:07.657Z,3.50
2018-09-08T18:32:36.313Z,3.70
2018-09-08T18:35:04.930Z,4.53
2018-09-08T18:37:33.579Z,3.70
2018-09-08T18:40:02.131Z,2.90
2018-09-08T18:42:30.682Z,3.20
2018-09-08T18:44:59.309Z,5.53
2018-09-08T18:47:27.877Z,3.23
2018-09-08T18:49:56.463Z,3.70
2018-09-08T18:52:24.998Z,3.83
2018-09-08T18:54:53.619Z,5.67
2018-09-08T18:57:22.194Z,3.80
2018-09-08T18:59:50.758Z,4.40
2018-09-08T19:02:19.309Z,4.30
2018-09-08T19:04:47.944Z,4.70
2018-09-08T19:07:16.532Z,4.80
2018-09-08T19:09:49.301Z,4.37
2018-09-08T19:12:17.953Z,4.70
2018-09-08T19:15:18.838Z,4.30
2018-09-08T19:17:47.440Z,6.30
2018-09-08T19:20:21.447Z,4.60
2018-09-08T19:22:50.013Z,6.33
2018-09-08T19:25:18.867Z,5.27
2018-09-08T19:27:47.438Z,5.57
2018-09-08T19:30:16.058Z,4.77
2018-09-08T19:32:44.644Z,7.50
2018-09-08T19:42:22.313Z,5.20
2018-09-08T19:44:50.981Z,4.63
2018-09-08T19:47:24.936Z,6.80
2018-09-08T19:49:54.226Z,9.63
2018-09-08T19:52:27.938Z,4.43
2018-09-08T19:54:56.720Z,4.70
2018-09-08T19:57:30.702Z,5.50
2018-09-08T19:59:59.341Z,3.80
2018-09-08T20:02:27.990Z,4.53
2018-09-08T20:04:56.590Z,4.60
2018-09-08T20:07:25.190Z,4.57
2018-09-08T20:09:53.799Z,6.73
2018-09-08T20:12:22.380Z,5.60
2018-09-08T20:14:50.993Z,5.47
2018-09-08T20:17:19.557Z,4.90
2018-09-08T20:19:48.161Z,4.63
2018-09-08T20:22:16.711Z,7.23
2018-09-08T20:24:45.416Z,6.23
2018-09-08T20:27:14.074Z,5.27
2018-09-08T20:29:42.726Z,6.60
2018-09-08T20:32:11.350Z,5.77
2018-09-08T20:34:40.004Z,7.20
2018-09-08T20:37:08.656Z,6.10
2018-09-08T20:39:37.256Z,6.70
2018-09-08T20:42:05.965Z,7.37
2018-09-08T20:44:34.640Z,6.47
2018-09-08T20:47:03.231Z,5.90
2018-09-08T20:49:31.872Z,6.47
2018-09-08T20:52:00.471Z,6.33
2018-09-08T20:54:29.093Z,8.93
2018-09-08T20:56:57.675Z,6.13
2018-09-08T20:59:26.341Z,6.30
2018-09-08T21:01:54.928Z,8.37
2018-09-08T21:04:23.545Z,6.90
2018-09-08T21:06:52.106Z,8.00
2018-09-08T21:09:20.709Z,7.07
2018-09-08T21:11:49.410Z,7.37
2018-09-08T21:14:18.001Z,7.20
2018-09-08T21:16:46.626Z,5.97
2018-09-08T21:19:15.245Z,7.70
2018-09-08T21:21:43.846Z,6.40
2018-09-08T21:24:12.444Z,6.43
2018-09-08T21:26:41.006Z,6.57
2018-09-08T21:29:09.552Z,5.60
2018-09-08T21:31:38.164Z,9.90
2018-09-08T21:34:06.777Z,10.00
2018-09-08T21:36:35.491Z,7.67
2018-09-08T21:39:05.053Z,6.63
2018-09-08T21:41:33.651Z,7.17
2018-09-08T21:44:02.250Z,16.17
2018-09-08T21:46:30.837Z,6.40
2018-09-08T21:48:59.418Z,6.90
2018-09-08T21:51:28.030Z,8.37
2018-09-08T21:53:56.635Z,6.20
2018-09-08T21:56:25.244Z,7.00
2018-09-08T21:58:54.033Z,8.27
2018-09-08T22:01:24.687Z,9.40
2018-09-08T22:03:54.166Z,6.60
2018-09-08T22:06:23.456Z,6.47
2018-09-08T22:08:52.118Z,5.93
2018-09-08T22:11:20.781Z,5.70
2018-09-08T22:13:49.353Z,6.03
2018-09-08T22:16:18.009Z,6.40
2018-09-08T22:18:46.651Z,7.23
2018-09-08T22:21:15.243Z,7.07
2018-09-08T22:23:43.844Z,8.53
2018-09-08T22:26:12.453Z,7.70
2018-09-08T22:28:41.040Z,6.00
2018-09-08T22:31:09.633Z,9.00
2018-09-08T22:33:38.230Z,10.10
2018-09-08T22:36:06.886Z,6.67
2018-09-08T22:38:35.470Z,6.30
2018-09-08T22:41:04.385Z,9.60
2018-09-08T22:43:33.017Z,10.23
2018-09-08T22:46:01.659Z,7.13
2018-09-08T22:48:30.257Z,7.33
2018-09-08T22:50:58.862Z,5.70
2018-09-08T22:53:27.432Z,7.17
2018-09-08T22:55:56.001Z,9.00
2018-09-08T22:58:24.562Z,8.90
2018-09-08T23:00:53.157Z,8.90
2018-09-08T23:03:21.741Z,9.77
2018-09-08T23:05:50.347Z,8.83
2018-09-08T23:08:18.948Z,7.50
2018-09-08T23:10:47.533Z,7.37
2018-09-08T23:13:16.106Z,7.17
2018-09-08T23:15:44.777Z,8.57
2018-09-08T23:18:13.374Z,6.50
2018-09-08T23:20:41.953Z,7.50
2018-09-08T23:23:10.543Z,11.93
2018-09-08T23:25:39.151Z,9.80
2018-09-08T23:28:07.730Z,8.40
2018-09-08T23:30:36.325Z,9.40
2018-09-08T23:33:04.950Z,6.53
2018-09-08T23:35:33.692Z,7.03
2018-09-08T23:38:02.297Z,7.50
2018-09-08T23:40:30.892Z,8.03
2018-09-08T23:42:59.450Z,8.53
2018-09-08T23:45:28.074Z,15.47
2018-09-08T23:47:56.691Z,13.97
2018-09-08T23:50:25.294Z,13.90
2018-09-08T23:52:53.956Z,15.10
2018-09-08T23:55:22.525Z,13.60
2018-09-08T23:57:51.082Z,10.63
